Home > Products > Valid Products > TAF

000
FTUS44 KLZK 261700
TAFPBF
TAF
KPBF 261731Z 2618/2718 22012KT P6SM SCT250
     FM262000 29010G18KT P6SM SKC
     FM270100 30006KT P6SM SKC
     FM271200 34006KT P6SM SKC=



000
FTUS44 KLZK 261700
TAFHOT
TAF
KHOT 261731Z 2618/2718 30007KT P6SM SCT250
     FM261900 29010G20KT P6SM SKC
     FM270100 31006KT P6SM SKC
     FM271200 01003KT P6SM SKC=



000
FTUS44 KLZK 261700
TAFLIT
TAF
KLIT 261731Z 2618/2718 26008KT P6SM SCT250
     FM262000 30010G18KT P6SM SKC
     FM270100 31009KT P6SM SKC
     FM271300 35008KT P6SM SKC=



000
FTUS44 KLZK 261700
TAFHRO
TAF
KHRO 261731Z 2618/2718 28007KT P6SM FEW080 BKN100
     FM262000 30011G18KT P6SM SCT150
     FM270100 30009KT P6SM BKN025=



000
FTUS44 KLZK 261600 AAA
TAFPBF
TAF AMD
KPBF 261603Z 2616/2712 20008KT P6SM BKN150 BKN200
     FM261800 25012G20KT P6SM BKN150 BKN200
     FM262200 29010G18KT P6SM SCT150
     FM270100 30006KT P6SM SCT035=



000
FTUS44 KLZK 261500 AAA
TAFLIT
TAF AMD
KLIT 261550Z 2616/2712 17003KT P6SM BKN130 OVC250
     FM261700 24010KT P6SM BKN120 OVC200
     FM262000 30010G18KT P6SM SCT150
     FM270100 30006KT P6SM SCT035=



000
FTUS44 KLZK 261500 AAA
TAFHOT
TAF AMD
KHOT 261549Z 2616/2712 VRB04KT P6SM BKN120 OVC200
     FM261700 24010KT P6SM BKN150 OVC200
     FM261900 29010G20KT P6SM SCT150
     FM270100 31006KT P6SM SCT035=



000
FTUS44 KLZK 261100
TAFPBF
TAF
KPBF 261126Z 2612/2712 18006KT P6SM SCT080 BKN150
     FM261600 25012G20KT P6SM BKN080 BKN150
     FM262000 29010G18KT P6SM SCT150
     FM270100 30006KT P6SM SCT035=



000
FTUS44 KLZK 261100
TAFLIT
TAF
KLIT 261126Z 2612/2712 20006KT P6SM SCT080 BKN150
     FM261500 24012G20KT P6SM BKN080 BKN150
     FM261900 30010G18KT P6SM SCT150
     FM270100 30006KT P6SM SCT035=



000
FTUS44 KLZK 261100
TAFHOT
TAF
KHOT 261126Z 2612/2712 20006KT P6SM SCT080 BKN150
     FM261400 24010G18KT P6SM BKN080 BKN150
     FM261700 29010G20KT P6SM SCT150
     FM270100 31006KT P6SM SCT035=



000
FTUS44 KLZK 261100
TAFHRO
TAF
KHRO 261126Z 2612/2712 17006KT P6SM BKN060
      TEMPO 2614/2618 -RA BKN035
     FM261800 26010KT P6SM BKN100
     FM262000 30014G22KT P6SM SCT150
     FM270100 30009KT P6SM BKN025=



000
FTUS44 KLZK 260500
TAFPBF
TAF
KPBF 260530Z 2606/2706 16006KT P6SM SCT080 BKN120
     FM261900 28012G22KT P6SM SCT250
     FM270200 29008KT P6SM FEW040 SCT250=



000
FTUS44 KLZK 260500
TAFHRO
TAF
KHRO 260530Z 2606/2706 17008KT P6SM BKN060 BKN100
     FM261600 29014G22KT P6SM SCT250
     FM270000 30008G15KT P6SM SCT025=



000
FTUS44 KLZK 260500
TAFHOT
TAF
KHOT 260530Z 2606/2706 17005KT P6SM SCT080 BKN120
     FM261600 30010G18KT P6SM SCT250
     FM270100 31006KT P6SM SCT040 SCT250=



000
FTUS44 KLZK 260500
TAFLIT
TAF
KLIT 260530Z 2606/2706 16006KT P6SM SCT080 BKN120
     FM261800 29012G22KT P6SM SCT250
     FM270100 29010KT P6SM SCT040 SCT250=



000
FTUS44 KLZK 252300
TAFHRO
TAF
KHRO 252320Z 2600/2624 VRB04KT P6SM FEW100 SCT250
     FM260900 17008KT P6SM BKN060 BKN100
     FM261600 29014G22KT P6SM SCT250=



000
FTUS44 KLZK 252300
TAFLIT
TAF
KLIT 252320Z 2600/2624 VRB04KT P6SM FEW250
     FM260800 16006KT P6SM SCT080 BKN120
     FM261800 29012G22KT P6SM SCT250=



000
FTUS44 KLZK 252300
TAFHOT
TAF
KHOT 252320Z 2600/2624 VRB04KT P6SM FEW250
     FM260700 16006KT P6SM SCT080 BKN120
     FM261600 30010G18KT P6SM SCT250=



000
FTUS44 KLZK 252300
TAFPBF
TAF
KPBF 252320Z 2600/2624 VRB04KT P6SM FEW250
     FM260800 16006KT P6SM SCT080 BKN120
     FM261800 28012G22KT P6SM SCT250=



000
FTUS44 KLZK 251700
TAFHOT
TAF
KHOT 251735Z 2518/2618 32008KT P6SM SKC
     FM252200 00000KT P6SM FEW250
     FM260800 16003KT P6SM FEW150 BKN250
     FM261600 26008KT P6SM SCT250=



000
FTUS44 KLZK 251700
TAFLIT
TAF
KLIT 251735Z 2518/2618 30007KT P6SM FEW250
     FM252300 VRB03KT P6SM FEW250
     FM261100 18007KT P6SM FEW150 BKN250
     FM261700 27012G20KT P6SM SCT250=



000
FTUS44 KLZK 251700
TAFHRO
TAF
KHRO 251735Z 2518/2618 30005KT P6SM SKC
     FM260300 17007KT P6SM FEW100 SCT250
     FM261000 19011KT P6SM BKN060 BKN100
     FM261500 26012G20KT P6SM SCT250=



000
FTUS44 KLZK 251700
TAFPBF
TAF
KPBF 251735Z 2518/2618 35007KT P6SM SKC
     FM252300 VRB03KT P6SM SCT250
     FM261100 18007KT P6SM BKN250
     FM261700 25012G20KT P6SM SCT250=



000
FTUS44 KLZK 251100
TAFLIT
TAF
KLIT 251135Z 2512/2612 31006KT P6SM SKC
     FM252200 VRB03KT P6SM SCT250
     FM260300 18004KT P6SM BKN250=



000
FTUS44 KLZK 251100
TAFPBF
TAF
KPBF 251135Z 2512/2612 32006KT P6SM SCT250
     FM252200 VRB03KT P6SM SCT250
     FM260300 19004KT P6SM BKN250=



000
FTUS44 KLZK 251100
TAFHOT
TAF
KHOT 251135Z 2512/2612 32004KT P6SM SKC
     FM252200 00000KT P6SM SCT250
     FM260300 18003KT P6SM BKN250=



000
FTUS44 KLZK 251100
TAFHRO
TAF
KHRO 251135Z 2512/2612 30007KT P6SM SKC
     FM252200 24005KT P6SM SCT250
     FM260300 17007KT P6SM SCT060 BKN250=



000
FTUS44 KLZK 250500
TAFPBF
TAF
KPBF 250538Z 2506/2606 23005KT P6SM SKC
     FM251400 32005KT P6SM SCT250
     FM260000 19003KT P6SM SCT250=



000
FTUS44 KLZK 250500
TAFLIT
TAF
KLIT 250538Z 2506/2606 27006KT P6SM SKC
     FM251400 29007KT P6SM SCT250
     FM260000 18003KT P6SM SCT250=



000
FTUS44 KLZK 250500
TAFHRO
TAF
KHRO 250538Z 2506/2606 30006KT P6SM SKC
     FM251400 29007KT P6SM SCT250
     FM260000 17006KT P6SM SCT060 BKN250=



000
FTUS44 KLZK 250500
TAFHOT
TAF
KHOT 250538Z 2506/2606 29003KT P6SM SKC
     FM251400 29005KT P6SM SCT250
     FM260000 18003KT P6SM SCT250=



000
FTUS44 KLZK 242300
TAFPBF
TAF
KPBF 242320Z 2500/2524 23005KT P6SM SKC
     FM251400 32005KT P6SM SKC=



000
FTUS44 KLZK 242300
TAFLIT
TAF
KLIT 242320Z 2500/2524 27006KT P6SM SKC
     FM251400 29007KT P6SM SKC=



000
FTUS44 KLZK 242300
TAFHOT
TAF
KHOT 242320Z 2500/2524 29003KT P6SM SKC
     FM251400 29005KT P6SM SKC=



000
FTUS44 KLZK 242300
TAFHRO
TAF
KHRO 242320Z 2500/2524 VRB06KT P6SM SKC
     FM251400 29007KT P6SM SKC=



000
FTUS44 KLZK 241700
TAFHRO
TAF
KHRO 241724Z 2418/2518 29012G22KT P6SM FEW040
     FM250000 30005KT P6SM SKC
     FM251400 29007KT P6SM SKC=



000
FTUS44 KLZK 241700
TAFHOT
TAF
KHOT 241724Z 2418/2518 28010G20KT P6SM SKC
     FM250000 29003KT P6SM SKC
     FM251400 29005KT P6SM SKC=



000
FTUS44 KLZK 241700
TAFLIT
TAF
KLIT 241724Z 2418/2518 29014G24KT P6SM SKC
     FM250000 29006KT P6SM SKC
     FM251400 29007KT P6SM SKC=



000
FTUS44 KLZK 241700
TAFPBF
TAF
KPBF 241724Z 2418/2518 29010G20KT P6SM SKC
     FM250000 28005KT P6SM SKC
     FM251400 32005KT P6SM SKC=



000
FTUS44 KLZK 241100
TAFPBF
TAF
KPBF 241135Z 2412/2512 27014G22KT P6SM SKC
     FM250000 30005KT P6SM SKC=



000
FTUS44 KLZK 241100
TAFHRO
TAF
KHRO 241135Z 2412/2512 28014G22KT P6SM FEW040
     FM250000 30005KT P6SM SKC=



000
FTUS44 KLZK 241100
TAFHOT
TAF
KHOT 241135Z 2412/2512 28012G20KT P6SM SKC
     FM250000 30003KT P6SM SKC=



000
FTUS44 KLZK 241100
TAFLIT
TAF
KLIT 241135Z 2412/2512 27014G24KT P6SM SKC
     FM250000 30006KT P6SM SKC=



000
FTUS44 KLZK 241100 AAB
TAFPBF
TAF AMD
KPBF 241110Z 2411/2506 27014G24KT P6SM SCT040
     FM241400 27014G24KT P6SM SKC
     FM250000 VRB06KT P6SM SKC=



000
FTUS44 KLZK 241100 AAA
TAFLIT
TAF AMD
KLIT 241110Z 2411/2506 27015G25KT P6SM SCT040
     FM241400 26014G24KT P6SM SKC
     FM250000 VRB06KT P6SM SKC=



000
FTUS44 KLZK 241000 AAA
TAFHOT
TAF AMD
KHOT 241047Z 2411/2506 28010G18KT P6SM SCT040
     FM241400 28012G22KT P6SM SKC
     FM250000 VRB06KT P6SM SKC=



000
FTUS44 KLZK 240900 AAA
TAFHRO
TAF AMD
KHRO 240914Z 2409/2506 29009G16KT P6SM SCT040
     FM241400 29014G24KT P6SM SKC
     FM250000 VRB06KT P6SM SKC=



000
FTUS44 KLZK 240900 AAA
TAFPBF
TAF AMD
KPBF 240913Z 2409/2506 27015G25KT P6SM SCT025 BKN040
      TEMPO 2409/2411 BKN025
     FM241300 27014G24KT P6SM SCT040
     FM250000 VRB06KT P6SM SKC=



000
FTUS44 KLZK 240500
TAFLIT
TAF
KLIT 240537Z 2406/2506 27015G25KT P6SM SCT025 BKN040
     FM241300 26014G24KT P6SM SCT040
     FM250000 VRB06KT P6SM SKC=



000
FTUS44 KLZK 240500
TAFPBF
TAF
KPBF 240537Z 2406/2506 22015G25KT P6SM SKC
     FM240800 27015G25KT P6SM SCT025 BKN040
     FM241300 27014G24KT P6SM SCT040
     FM250000 VRB06KT P6SM SKC=



000
FTUS44 KLZK 240500
TAFHRO
TAF
KHRO 240537Z 2406/2506 29015G25KT P6SM VCSH OVC012
      TEMPO 2408/2412 SCT012 OVC020
     FM241200 29014G24KT P6SM SCT040
     FM250000 VRB06KT P6SM SKC=



000
FTUS44 KLZK 240500
TAFHOT
TAF
KHOT 240537Z 2406/2506 28010G18KT P6SM SCT025 BKN040
      TEMPO 2408/2412 BKN025
     FM241200 28012G22KT P6SM SCT040
     FM250000 VRB06KT P6SM SKC=



000
FTUS44 KLZK 240400 AAA
TAFHRO
TAF AMD
KHRO 240459Z 2405/2424 29020G30KT P6SM BKN008
     FM241200 29018G28KT P6SM BKN040
     FM241800 29010G18KT P6SM SCT040=



000
FTUS44 KLZK 240000 AAA
TAFLIT
TAF AMD
KLIT 240038Z 2401/2424 19008KT P6SM SCT025 BKN040
      TEMPO 2401/2405 BKN025
     FM240600 27018G28KT P6SM OVC020
     FM241300 26018G28KT P6SM SCT030=



000
FTUS44 KLZK 232300
TAFHOT
TAF
KHOT 232320Z 2400/2424 20007KT P6SM OVC015
     FM240600 28010G18KT P6SM OVC020
     FM241200 28012G22KT P6SM SCT030=



000
FTUS44 KLZK 232300
TAFHRO
TAF
KHRO 232320Z 2400/2424 17008KT P6SM VCSH SCT025 BKN040
      TEMPO 2400/2404 3SM -TSRA BR BKN025CB
     FM240600 29020G30KT P6SM OVC015
     FM241200 29018G28KT P6SM BKN040
     FM241800 29010G18KT P6SM SCT040=



000
FTUS44 KLZK 232300
TAFLIT
TAF
KLIT 232320Z 2400/2424 19008KT P6SM BKN008 OVC015
     FM240300 23012G22KT P6SM OVC015
     FM240600 27018G28KT P6SM OVC020
     FM241300 26018G28KT P6SM SCT030=



000
FTUS44 KLZK 232300
TAFPBF
TAF
KPBF 232320Z 2400/2424 20010KT P6SM OVC012
     FM240300 22012G22KT P6SM OVC015
     FM240600 27018G28KT P6SM OVC020
     FM241300 27018G28KT P6SM SCT030=



000
FTUS44 KLZK 232000 AAA
TAFHRO
TAF AMD
KHRO 232002Z 2320/2418 17008KT P6SM OVC018
     FM240300 24010G20KT 5SM -RA BR OVC008
      TEMPO 2403/2407 3SM -RA BR OVC004
     FM240700 29018G28KT P6SM OVC015
     FM241200 29018G28KT P6SM BKN040=



000
FTUS44 KLZK 232000 AAA
TAFHRO
TAF AMD
KHRO 232002Z 2320/2418 17008KT P6SM OVC018
     FM240300 24010G20KT 5SM -RA BR OVC008
      TEMPO 2403/2407 3SM -RA BR OVC004
     FM240700 29018G28KT P6SM OVC015
     FM241200 29018G28KT P6SM BKN040=



    US Dept of Commerce
    National Oceanic and Atmospheric Administration
    National Weather Service
    1325 East West Highway
    Silver Spring, MD 20910
    Page Author: NWS Internet Services Team
Disclaimer
Information Quality
Credits
Glossary
Privacy Policy
Freedom of Information Act (FOIA)
About Us
Career Opportunities